sensor_id;sensor_type;location;lat;lon;timestamp;temperature;humidity
13806;DHT22;6974;53.606;9.872;2023-03-21T00:01:14;9.60;99.90
13806;DHT22;6974;53.606;9.872;2023-03-21T00:03:41;9.60;99.90
13806;DHT22;6974;53.606;9.872;2023-03-21T00:06:10;9.60;99.90
13806;DHT22;6974;53.606;9.872;2023-03-21T00:08:39;9.60;99.90
13806;DHT22;6974;53.606;9.872;2023-03-21T00:11:08;9.50;99.90
13806;DHT22;6974;53.606;9.872;2023-03-21T00:13:37;9.50;99.90
13806;DHT22;6974;53.606;9.872;2023-03-21T00:16:08;9.50;99.90
13806;DHT22;6974;53.606;9.872;2023-03-21T00:18:40;9.50;99.90
13806;DHT22;6974;53.606;9.872;2023-03-21T00:21:12;9.40;99.90
13806;DHT22;6974;53.606;9.872;2023-03-21T00:23:43;9.50;99.90
13806;DHT22;6974;53.606;9.872;2023-03-21T00:26:11;9.50;99.90
13806;DHT22;6974;53.606;9.872;2023-03-21T00:28:43;9.50;99.90
13806;DHT22;6974;53.606;9.872;2023-03-21T00:31:10;9.50;99.90
13806;DHT22;6974;53.606;9.872;2023-03-21T00:33:37;9.50;99.90
13806;DHT22;6974;53.606;9.872;2023-03-21T00:36:05;9.50;99.90
13806;DHT22;6974;53.606;9.872;2023-03-21T00:38:32;9.40;99.90
13806;DHT22;6974;53.606;9.872;2023-03-21T00:41:03;9.40;99.90
13806;DHT22;6974;53.606;9.872;2023-03-21T00:43:30;9.40;99.90
13806;DHT22;6974;53.606;9.872;2023-03-21T00:45:58;9.40;99.90
13806;DHT22;6974;53.606;9.872;2023-03-21T00:48:26;9.50;99.90
13806;DHT22;6974;53.606;9.872;2023-03-21T00:50:55;9.60;99.90
13806;DHT22;6974;53.606;9.872;2023-03-21T00:53:24;9.60;99.90
13806;DHT22;6974;53.606;9.872;2023-03-21T00:55:51;9.50;99.90
13806;DHT22;6974;53.606;9.872;2023-03-21T00:58:20;9.50;99.90
13806;DHT22;6974;53.606;9.872;2023-03-21T01:00:47;9.60;99.90
13806;DHT22;6974;53.606;9.872;2023-03-21T01:03:15;9.50;99.90
13806;DHT22;6974;53.606;9.872;2023-03-21T01:05:44;9.50;99.90
13806;DHT22;6974;53.606;9.872;2023-03-21T01:08:31;9.50;99.90
13806;DHT22;6974;53.606;9.872;2023-03-21T01:11:02;9.60;99.90
13806;DHT22;6974;53.606;9.872;2023-03-21T01:13:31;9.50;99.90
13806;DHT22;6974;53.606;9.872;2023-03-21T01:15:59;9.60;99.90
13806;DHT22;6974;53.606;9.872;2023-03-21T01:18:28;9.70;99.90
13806;DHT22;6974;53.606;9.872;2023-03-21T01:20:58;9.60;99.90
13806;DHT22;6974;53.606;9.872;2023-03-21T01:23:27;9.60;99.90
13806;DHT22;6974;53.606;9.872;2023-03-21T01:25:55;9.60;99.90
13806;DHT22;6974;53.606;9.872;2023-03-21T01:28:26;9.60;99.90
13806;DHT22;6974;53.606;9.872;2023-03-21T01:30:55;9.60;99.90
13806;DHT22;6974;53.606;9.872;2023-03-21T01:33:22;9.60;99.90
13806;DHT22;6974;53.606;9.872;2023-03-21T01:35:50;9.60;99.90
13806;DHT22;6974;53.606;9.872;2023-03-21T01:38:17;9.60;99.90
13806;DHT22;6974;53.606;9.872;2023-03-21T01:40:45;9.50;99.90
13806;DHT22;6974;53.606;9.872;2023-03-21T01:43:23;9.60;99.90
13806;DHT22;6974;53.606;9.872;2023-03-21T01:46:27;9.60;99.90
13806;DHT22;6974;53.606;9.872;2023-03-21T01:48:59;9.70;99.90
13806;DHT22;6974;53.606;9.872;2023-03-21T01:51:28;9.70;99.90
13806;DHT22;6974;53.606;9.872;2023-03-21T01:53:56;9.70;99.90
13806;DHT22;6974;53.606;9.872;2023-03-21T01:56:28;9.70;99.90
13806;DHT22;6974;53.606;9.872;2023-03-21T01:58:59;9.60;99.90
13806;DHT22;6974;53.606;9.872;2023-03-21T02:01:30;9.60;99.90
13806;DHT22;6974;53.606;9.872;2023-03-21T02:03:59;9.60;99.90
13806;DHT22;6974;53.606;9.872;2023-03-21T02:06:40;9.60;99.90
13806;DHT22;6974;53.606;9.872;2023-03-21T02:09:12;9.60;99.90
13806;DHT22;6974;53.606;9.872;2023-03-21T02:11:40;9.70;99.90
13806;DHT22;6974;53.606;9.872;2023-03-21T02:14:14;9.70;99.90
13806;DHT22;6974;53.606;9.872;2023-03-21T02:17:00;9.70;99.90
13806;DHT22;6974;53.606;9.872;2023-03-21T02:19:47;9.60;99.90
13806;DHT22;6974;53.606;9.872;2023-03-21T02:22:39;9.60;99.90
13806;DHT22;6974;53.606;9.872;2023-03-21T02:25:33;9.70;99.90
13806;DHT22;6974;53.606;9.872;2023-03-21T02:28:05;9.80;99.90
13806;DHT22;6974;53.606;9.872;2023-03-21T02:37:00;9.80;99.90
13806;DHT22;6974;53.606;9.872;2023-03-21T02:39:40;9.80;99.90
13806;DHT22;6974;53.606;9.872;2023-03-21T02:42:15;9.70;99.90
13806;DHT22;6974;53.606;9.872;2023-03-21T02:44:47;9.70;99.90
13806;DHT22;6974;53.606;9.872;2023-03-21T02:47:20;9.70;99.90
13806;DHT22;6974;53.606;9.872;2023-03-21T02:49:51;9.60;99.90
13806;DHT22;6974;53.606;9.872;2023-03-21T02:52:24;9.60;99.90
13806;DHT22;6974;53.606;9.872;2023-03-21T02:54:54;9.60;99.90
13806;DHT22;6974;53.606;9.872;2023-03-21T02:57:23;9.70;99.90
13806;DHT22;6974;53.606;9.872;2023-03-21T02:59:51;9.70;99.90
13806;DHT22;6974;53.606;9.872;2023-03-21T03:02:24;9.70;99.90
13806;DHT22;6974;53.606;9.872;2023-03-21T03:04:52;9.70;99.90
13806;DHT22;6974;53.606;9.872;2023-03-21T03:07:30;9.80;99.90
13806;DHT22;6974;53.606;9.872;2023-03-21T03:10:14;9.80;99.90
13806;DHT22;6974;53.606;9.872;2023-03-21T03:12:48;9.80;99.90
13806;DHT22;6974;53.606;9.872;2023-03-21T03:15:24;9.80;99.90
13806;DHT22;6974;53.606;9.872;2023-03-21T03:17:59;9.80;99.90
13806;DHT22;6974;53.606;9.872;2023-03-21T03:20:35;9.70;99.90
13806;DHT22;6974;53.606;9.872;2023-03-21T03:23:15;9.70;99.90
13806;DHT22;6974;53.606;9.872;2023-03-21T03:25:50;9.70;99.90
13806;DHT22;6974;53.606;9.872;2023-03-21T03:28:20;9.80;99.90
13806;DHT22;6974;53.606;9.872;2023-03-21T03:30:50;9.70;99.90
13806;DHT22;6974;53.606;9.872;2023-03-21T03:33:18;9.70;99.90
13806;DHT22;6974;53.606;9.872;2023-03-21T03:35:49;9.70;99.90
13806;DHT22;6974;53.606;9.872;2023-03-21T03:38:20;9.80;99.90
13806;DHT22;6974;53.606;9.872;2023-03-21T03:40:49;9.80;99.90
13806;DHT22;6974;53.606;9.872;2023-03-21T03:43:21;9.80;99.90
13806;DHT22;6974;53.606;9.872;2023-03-21T03:45:53;9.80;99.90
13806;DHT22;6974;53.606;9.872;2023-03-21T03:48:24;9.70;99.90
13806;DHT22;6974;53.606;9.872;2023-03-21T03:50:55;9.70;99.90
13806;DHT22;6974;53.606;9.872;2023-03-21T03:53:33;9.70;99.90
13806;DHT22;6974;53.606;9.872;2023-03-21T03:56:04;9.80;99.90
13806;DHT22;6974;53.606;9.872;2023-03-21T03:58:34;9.80;99.90
13806;DHT22;6974;53.606;9.872;2023-03-21T04:01:04;9.80;99.90
13806;DHT22;6974;53.606;9.872;2023-03-21T04:03:32;9.70;99.90
13806;DHT22;6974;53.606;9.872;2023-03-21T04:06:01;9.70;99.90
13806;DHT22;6974;53.606;9.872;2023-03-21T04:08:30;9.70;99.90
13806;DHT22;6974;53.606;9.872;2023-03-21T04:10:57;9.70;99.90
13806;DHT22;6974;53.606;9.872;2023-03-21T04:13:24;9.70;99.90
13806;DHT22;6974;53.606;9.872;2023-03-21T04:15:51;9.70;99.90
13806;DHT22;6974;53.606;9.872;2023-03-21T04:18:19;9.60;99.90
13806;DHT22;6974;53.606;9.872;2023-03-21T04:20:47;9.60;99.90
13806;DHT22;6974;53.606;9.872;2023-03-21T04:23:15;9.70;99.90
13806;DHT22;6974;53.606;9.872;2023-03-21T04:25:45;9.70;99.90
13806;DHT22;6974;53.606;9.872;2023-03-21T04:28:12;9.80;99.90
13806;DHT22;6974;53.606;9.872;2023-03-21T04:30:42;9.80;99.90
13806;DHT22;6974;53.606;9.872;2023-03-21T04:33:10;9.80;99.90
13806;DHT22;6974;53.606;9.872;2023-03-21T04:35:37;9.80;99.90
13806;DHT22;6974;53.606;9.872;2023-03-21T04:38:04;9.80;99.90
13806;DHT22;6974;53.606;9.872;2023-03-21T04:40:31;9.80;99.90
13806;DHT22;6974;53.606;9.872;2023-03-21T04:43:00;9.70;99.90
13806;DHT22;6974;53.606;9.872;2023-03-21T04:45:27;9.70;99.90
13806;DHT22;6974;53.606;9.872;2023-03-21T04:47:54;9.80;99.90
13806;DHT22;6974;53.606;9.872;2023-03-21T04:50:21;9.80;99.90
13806;DHT22;6974;53.606;9.872;2023-03-21T04:52:48;9.80;99.90
13806;DHT22;6974;53.606;9.872;2023-03-21T04:55:15;9.80;99.90
13806;DHT22;6974;53.606;9.872;2023-03-21T04:57:46;9.80;99.90
13806;DHT22;6974;53.606;9.872;2023-03-21T05:00:17;9.80;99.90
13806;DHT22;6974;53.606;9.872;2023-03-21T05:02:45;9.80;99.90
13806;DHT22;6974;53.606;9.872;2023-03-21T05:05:12;9.80;99.90
13806;DHT22;6974;53.606;9.872;2023-03-21T05:07:40;9.80;99.90
13806;DHT22;6974;53.606;9.872;2023-03-21T05:10:10;9.80;99.90
13806;DHT22;6974;53.606;9.872;2023-03-21T05:12:37;9.80;99.90
13806;DHT22;6974;53.606;9.872;2023-03-21T05:15:06;9.90;99.90
13806;DHT22;6974;53.606;9.872;2023-03-21T05:17:35;9.90;99.90
13806;DHT22;6974;53.606;9.872;2023-03-21T05:20:03;9.80;99.90
13806;DHT22;6974;53.606;9.872;2023-03-21T05:22:32;9.80;99.90
13806;DHT22;6974;53.606;9.872;2023-03-21T05:25:06;9.80;99.90
13806;DHT22;6974;53.606;9.872;2023-03-21T05:27:34;9.80;99.90
13806;DHT22;6974;53.606;9.872;2023-03-21T05:30:04;9.90;99.90
13806;DHT22;6974;53.606;9.872;2023-03-21T05:32:31;9.90;99.90
13806;DHT22;6974;53.606;9.872;2023-03-21T05:35:00;9.90;99.90
13806;DHT22;6974;53.606;9.872;2023-03-21T05:37:27;9.90;99.90
13806;DHT22;6974;53.606;9.872;2023-03-21T05:39:55;9.90;99.90
13806;DHT22;6974;53.606;9.872;2023-03-21T05:42:24;9.90;99.90
13806;DHT22;6974;53.606;9.872;2023-03-21T05:44:52;9.90;99.90
13806;DHT22;6974;53.606;9.872;2023-03-21T05:47:19;9.90;99.90
13806;DHT22;6974;53.606;9.872;2023-03-21T05:49:46;9.80;99.90
13806;DHT22;6974;53.606;9.872;2023-03-21T05:52:14;9.90;99.90
13806;DHT22;6974;53.606;9.872;2023-03-21T05:54:41;9.90;99.90
13806;DHT22;6974;53.606;9.872;2023-03-21T05:57:09;9.90;99.90
13806;DHT22;6974;53.606;9.872;2023-03-21T05:59:36;9.90;99.90
13806;DHT22;6974;53.606;9.872;2023-03-21T06:02:03;9.90;99.90
13806;DHT22;6974;53.606;9.872;2023-03-21T06:04:30;9.90;99.90
13806;DHT22;6974;53.606;9.872;2023-03-21T06:06:57;9.90;99.90
13806;DHT22;6974;53.606;9.872;2023-03-21T06:09:25;9.90;99.90
13806;DHT22;6974;53.606;9.872;2023-03-21T06:11:54;10.00;99.90
13806;DHT22;6974;53.606;9.872;2023-03-21T06:14:22;9.90;99.90
13806;DHT22;6974;53.606;9.872;2023-03-21T06:16:49;9.90;99.90
13806;DHT22;6974;53.606;9.872;2023-03-21T06:19:18;9.90;99.90
13806;DHT22;6974;53.606;9.872;2023-03-21T06:21:45;9.90;99.90
13806;DHT22;6974;53.606;9.872;2023-03-21T06:24:12;9.90;99.90
13806;DHT22;6974;53.606;9.872;2023-03-21T06:26:40;10.00;99.90
13806;DHT22;6974;53.606;9.872;2023-03-21T06:29:09;10.00;99.90
13806;DHT22;6974;53.606;9.872;2023-03-21T06:31:36;9.90;99.90
13806;DHT22;6974;53.606;9.872;2023-03-21T06:34:03;9.90;99.90
13806;DHT22;6974;53.606;9.872;2023-03-21T06:36:30;10.00;99.90
13806;DHT22;6974;53.606;9.872;2023-03-21T06:38:56;10.00;99.90
13806;DHT22;6974;53.606;9.872;2023-03-21T06:41:23;10.10;99.90
13806;DHT22;6974;53.606;9.872;2023-03-21T06:43:51;10.10;99.90
13806;DHT22;6974;53.606;9.872;2023-03-21T06:46:18;10.10;99.90
13806;DHT22;6974;53.606;9.872;2023-03-21T06:48:45;10.10;99.90
13806;DHT22;6974;53.606;9.872;2023-03-21T06:51:12;10.10;99.90
13806;DHT22;6974;53.606;9.872;2023-03-21T06:53:40;10.10;99.90
13806;DHT22;6974;53.606;9.872;2023-03-21T06:56:08;10.10;99.90
13806;DHT22;6974;53.606;9.872;2023-03-21T06:58:35;10.10;99.90
13806;DHT22;6974;53.606;9.872;2023-03-21T07:01:04;10.00;99.90
13806;DHT22;6974;53.606;9.872;2023-03-21T07:03:31;10.10;99.90
13806;DHT22;6974;53.606;9.872;2023-03-21T07:06:03;10.10;99.90
13806;DHT22;6974;53.606;9.872;2023-03-21T07:08:31;10.10;99.90
13806;DHT22;6974;53.606;9.872;2023-03-21T07:10:58;10.10;99.90
13806;DHT22;6974;53.606;9.872;2023-03-21T07:13:25;10.10;99.90
13806;DHT22;6974;53.606;9.872;2023-03-21T07:15:52;10.10;99.90
13806;DHT22;6974;53.606;9.872;2023-03-21T07:18:20;10.20;99.90
13806;DHT22;6974;53.606;9.872;2023-03-21T07:20:48;10.10;99.90
13806;DHT22;6974;53.606;9.872;2023-03-21T07:23:16;10.10;99.90
13806;DHT22;6974;53.606;9.872;2023-03-21T07:25:43;10.10;99.90
13806;DHT22;6974;53.606;9.872;2023-03-21T07:28:10;10.10;99.90
13806;DHT22;6974;53.606;9.872;2023-03-21T07:30:37;10.20;99.90
13806;DHT22;6974;53.606;9.872;2023-03-21T07:33:05;10.20;99.90
13806;DHT22;6974;53.606;9.872;2023-03-21T07:35:34;10.20;99.90
13806;DHT22;6974;53.606;9.872;2023-03-21T07:38:01;10.20;99.90
13806;DHT22;6974;53.606;9.872;2023-03-21T07:40:28;10.20;99.90
13806;DHT22;6974;53.606;9.872;2023-03-21T07:42:55;10.20;99.90
13806;DHT22;6974;53.606;9.872;2023-03-21T07:45:22;10.20;99.90
13806;DHT22;6974;53.606;9.872;2023-03-21T07:47:51;10.20;99.90
13806;DHT22;6974;53.606;9.872;2023-03-21T07:50:19;10.30;99.90
13806;DHT22;6974;53.606;9.872;2023-03-21T07:52:47;10.30;99.90
13806;DHT22;6974;53.606;9.872;2023-03-21T07:55:14;10.20;99.90
13806;DHT22;6974;53.606;9.872;2023-03-21T07:57:42;10.30;99.90
13806;DHT22;6974;53.606;9.872;2023-03-21T08:00:10;10.30;99.90
13806;DHT22;6974;53.606;9.872;2023-03-21T08:02:37;10.30;99.90
13806;DHT22;6974;53.606;9.872;2023-03-21T08:05:04;10.30;99.90
13806;DHT22;6974;53.606;9.872;2023-03-21T08:07:31;10.30;99.90
13806;DHT22;6974;53.606;9.872;2023-03-21T08:09:59;10.30;99.90
13806;DHT22;6974;53.606;9.872;2023-03-21T08:12:26;10.30;99.90
13806;DHT22;6974;53.606;9.872;2023-03-21T08:14:53;10.30;99.90
13806;DHT22;6974;53.606;9.872;2023-03-21T08:17:20;10.30;99.90
13806;DHT22;6974;53.606;9.872;2023-03-21T08:19:47;10.30;99.90
13806;DHT22;6974;53.606;9.872;2023-03-21T08:22:14;10.40;99.90
13806;DHT22;6974;53.606;9.872;2023-03-21T08:24:40;10.40;99.90
13806;DHT22;6974;53.606;9.872;2023-03-21T08:27:09;10.30;99.90
13806;DHT22;6974;53.606;9.872;2023-03-21T08:29:36;10.40;99.90
13806;DHT22;6974;53.606;9.872;2023-03-21T08:32:07;10.40;99.90
13806;DHT22;6974;53.606;9.872;2023-03-21T08:34:34;10.40;99.90
13806;DHT22;6974;53.606;9.872;2023-03-21T08:37:01;10.40;99.90
13806;DHT22;6974;53.606;9.872;2023-03-21T08:39:28;10.40;99.90
13806;DHT22;6974;53.606;9.872;2023-03-21T08:41:55;10.50;99.90
13806;DHT22;6974;53.606;9.872;2023-03-21T08:44:23;10.50;99.90
13806;DHT22;6974;53.606;9.872;2023-03-21T08:46:51;10.50;99.90
13806;DHT22;6974;53.606;9.872;2023-03-21T08:49:18;10.50;99.90
13806;DHT22;6974;53.606;9.872;2023-03-21T08:51:45;10.50;99.90
13806;DHT22;6974;53.606;9.872;2023-03-21T08:54:17;10.50;99.90
13806;DHT22;6974;53.606;9.872;2023-03-21T08:56:45;10.50;99.90
13806;DHT22;6974;53.606;9.872;2023-03-21T08:59:12;10.50;99.90
13806;DHT22;6974;53.606;9.872;2023-03-21T09:01:40;10.50;99.90
13806;DHT22;6974;53.606;9.872;2023-03-21T09:04:07;10.50;99.90
13806;DHT22;6974;53.606;9.872;2023-03-21T09:06:35;10.60;99.90
13806;DHT22;6974;53.606;9.872;2023-03-21T09:09:03;10.60;99.90
13806;DHT22;6974;53.606;9.872;2023-03-21T09:11:32;10.60;99.90
13806;DHT22;6974;53.606;9.872;2023-03-21T09:13:59;10.50;99.90
13806;DHT22;6974;53.606;9.872;2023-03-21T09:16:26;10.60;99.90
13806;DHT22;6974;53.606;9.872;2023-03-21T09:18:54;10.60;99.90
13806;DHT22;6974;53.606;9.872;2023-03-21T09:21:24;10.70;99.90
13806;DHT22;6974;53.606;9.872;2023-03-21T09:23:53;10.70;99.90
13806;DHT22;6974;53.606;9.872;2023-03-21T09:26:24;10.70;99.90
13806;DHT22;6974;53.606;9.872;2023-03-21T09:28:52;10.70;99.90
13806;DHT22;6974;53.606;9.872;2023-03-21T09:31:20;10.80;99.90
13806;DHT22;6974;53.606;9.872;2023-03-21T09:33:47;10.80;99.90
13806;DHT22;6974;53.606;9.872;2023-03-21T09:36:16;10.80;99.90
13806;DHT22;6974;53.606;9.872;2023-03-21T09:38:47;10.80;99.90
13806;DHT22;6974;53.606;9.872;2023-03-21T09:41:23;10.80;99.90
13806;DHT22;6974;53.606;9.872;2023-03-21T09:44:01;10.90;99.90
13806;DHT22;6974;53.606;9.872;2023-03-21T09:46:34;10.90;99.90
13806;DHT22;6974;53.606;9.872;2023-03-21T09:49:04;10.90;99.90
13806;DHT22;6974;53.606;9.872;2023-03-21T09:51:36;10.90;99.90
13806;DHT22;6974;53.606;9.872;2023-03-21T09:54:10;10.80;99.90
13806;DHT22;6974;53.606;9.872;2023-03-21T09:56:40;10.90;99.90
13806;DHT22;6974;53.606;9.872;2023-03-21T09:59:18;11.00;99.90
13806;DHT22;6974;53.606;9.872;2023-03-21T10:01:47;11.00;99.90
13806;DHT22;6974;53.606;9.872;2023-03-21T10:04:15;11.00;99.90
13806;DHT22;6974;53.606;9.872;2023-03-21T10:06:49;11.00;99.90
13806;DHT22;6974;53.606;9.872;2023-03-21T10:09:20;11.00;99.90
13806;DHT22;6974;53.606;9.872;2023-03-21T10:11:50;11.00;99.90
13806;DHT22;6974;53.606;9.872;2023-03-21T10:14:24;11.10;99.90
13806;DHT22;6974;53.606;9.872;2023-03-21T10:16:56;11.10;99.90
13806;DHT22;6974;53.606;9.872;2023-03-21T10:19:25;11.00;99.90
13806;DHT22;6974;53.606;9.872;2023-03-21T10:21:53;11.10;99.90
13806;DHT22;6974;53.606;9.872;2023-03-21T10:24:21;11.10;99.90
13806;DHT22;6974;53.606;9.872;2023-03-21T10:26:50;11.10;99.90
13806;DHT22;6974;53.606;9.872;2023-03-21T10:29:19;11.10;99.90
13806;DHT22;6974;53.606;9.872;2023-03-21T10:31:49;11.10;99.90
13806;DHT22;6974;53.606;9.872;2023-03-21T10:34:19;11.20;99.90
13806;DHT22;6974;53.606;9.872;2023-03-21T10:36:49;11.20;99.90
13806;DHT22;6974;53.606;9.872;2023-03-21T10:39:23;11.20;99.90
13806;DHT22;6974;53.606;9.872;2023-03-21T10:41:52;11.20;99.90
13806;DHT22;6974;53.606;9.872;2023-03-21T10:44:19;11.20;99.90
13806;DHT22;6974;53.606;9.872;2023-03-21T10:46:51;11.20;99.90
13806;DHT22;6974;53.606;9.872;2023-03-21T10:49:19;11.20;99.90
13806;DHT22;6974;53.606;9.872;2023-03-21T10:51:46;11.20;99.90
13806;DHT22;6974;53.606;9.872;2023-03-21T10:54:17;11.20;99.90
13806;DHT22;6974;53.606;9.872;2023-03-21T10:56:54;11.20;99.90
13806;DHT22;6974;53.606;9.872;2023-03-21T10:59:21;11.20;99.90
13806;DHT22;6974;53.606;9.872;2023-03-21T11:01:50;11.20;99.90
13806;DHT22;6974;53.606;9.872;2023-03-21T11:04:19;11.20;99.90
13806;DHT22;6974;53.606;9.872;2023-03-21T11:06:51;11.20;99.90
13806;DHT22;6974;53.606;9.872;2023-03-21T11:09:20;11.20;99.90
13806;DHT22;6974;53.606;9.872;2023-03-21T11:11:52;11.20;99.90
13806;DHT22;6974;53.606;9.872;2023-03-21T11:14:32;11.20;99.90
13806;DHT22;6974;53.606;9.872;2023-03-21T11:16:59;11.30;99.90
13806;DHT22;6974;53.606;9.872;2023-03-21T11:19:30;11.20;99.90
13806;DHT22;6974;53.606;9.872;2023-03-21T11:21:58;11.30;99.90
13806;DHT22;6974;53.606;9.872;2023-03-21T11:24:27;11.30;99.90
13806;DHT22;6974;53.606;9.872;2023-03-21T11:26:57;11.30;99.90
13806;DHT22;6974;53.606;9.872;2023-03-21T11:29:29;11.30;99.90
13806;DHT22;6974;53.606;9.872;2023-03-21T11:31:57;11.30;99.90
13806;DHT22;6974;53.606;9.872;2023-03-21T11:34:30;11.30;99.90
13806;DHT22;6974;53.606;9.872;2023-03-21T11:37:00;11.30;99.90
13806;DHT22;6974;53.606;9.872;2023-03-21T11:39:32;11.30;99.90
13806;DHT22;6974;53.606;9.872;2023-03-21T11:42:00;11.40;99.90
13806;DHT22;6974;53.606;9.872;2023-03-21T11:44:30;11.40;99.90
13806;DHT22;6974;53.606;9.872;2023-03-21T11:46:58;11.30;99.90
13806;DHT22;6974;53.606;9.872;2023-03-21T11:49:26;11.30;99.90
13806;DHT22;6974;53.606;9.872;2023-03-21T11:52:11;11.30;99.90
13806;DHT22;6974;53.606;9.872;2023-03-21T11:54:59;11.30;99.90
13806;DHT22;6974;53.606;9.872;2023-03-21T11:57:39;11.30;99.90
13806;DHT22;6974;53.606;9.872;2023-03-21T12:00:12;11.30;99.90
13806;DHT22;6974;53.606;9.872;2023-03-21T12:05:52;11.30;99.90
13806;DHT22;6974;53.606;9.872;2023-03-21T12:08:28;11.40;99.90
13806;DHT22;6974;53.606;9.872;2023-03-21T12:11:04;11.40;99.90
13806;DHT22;6974;53.606;9.872;2023-03-21T12:13:44;11.40;99.90
13806;DHT22;6974;53.606;9.872;2023-03-21T12:16:26;11.40;99.90
13806;DHT22;6974;53.606;9.872;2023-03-21T12:19:12;11.50;99.90
13806;DHT22;6974;53.606;9.872;2023-03-21T12:21:50;11.50;99.90
13806;DHT22;6974;53.606;9.872;2023-03-21T12:24:21;11.50;99.90
13806;DHT22;6974;53.606;9.872;2023-03-21T12:26:55;11.50;99.90
13806;DHT22;6974;53.606;9.872;2023-03-21T12:29:46;11.50;99.90
13806;DHT22;6974;53.606;9.872;2023-03-21T12:32:28;11.50;99.90
13806;DHT22;6974;53.606;9.872;2023-03-21T12:35:19;11.50;99.90
13806;DHT22;6974;53.606;9.872;2023-03-21T12:37:55;11.50;99.90
13806;DHT22;6974;53.606;9.872;2023-03-21T12:40:35;11.50;99.90
13806;DHT22;6974;53.606;9.872;2023-03-21T12:46:00;11.50;99.90
13806;DHT22;6974;53.606;9.872;2023-03-21T12:48:36;11.40;99.90
13806;DHT22;6974;53.606;9.872;2023-03-21T12:51:10;11.40;99.90
13806;DHT22;6974;53.606;9.872;2023-03-21T12:53:47;11.50;99.90
13806;DHT22;6974;53.606;9.872;2023-03-21T12:56:21;11.50;99.90
13806;DHT22;6974;53.606;9.872;2023-03-21T12:58:54;11.50;99.90
13806;DHT22;6974;53.606;9.872;2023-03-21T13:01:25;11.50;99.90
13806;DHT22;6974;53.606;9.872;2023-03-21T13:04:20;11.50;99.90
13806;DHT22;6974;53.606;9.872;2023-03-21T13:06:55;11.50;99.90
13806;DHT22;6974;53.606;9.872;2023-03-21T13:09:28;11.60;99.90
13806;DHT22;6974;53.606;9.872;2023-03-21T13:11:59;11.60;99.90
13806;DHT22;6974;53.606;9.872;2023-03-21T13:14:37;11.60;99.90
13806;DHT22;6974;53.606;9.872;2023-03-21T13:17:12;11.50;99.90
13806;DHT22;6974;53.606;9.872;2023-03-21T13:19:45;11.50;99.90
13806;DHT22;6974;53.606;9.872;2023-03-21T13:22:17;11.50;99.90
13806;DHT22;6974;53.606;9.872;2023-03-21T13:24:48;11.50;99.90
13806;DHT22;6974;53.606;9.872;2023-03-21T13:27:20;11.50;99.90
13806;DHT22;6974;53.606;9.872;2023-03-21T13:29:52;11.60;99.90
13806;DHT22;6974;53.606;9.872;2023-03-21T13:32:27;11.50;99.90
13806;DHT22;6974;53.606;9.872;2023-03-21T13:34:56;11.60;99.90
13806;DHT22;6974;53.606;9.872;2023-03-21T13:37:28;11.50;99.90
13806;DHT22;6974;53.606;9.872;2023-03-21T13:40:00;11.50;99.90
13806;DHT22;6974;53.606;9.872;2023-03-21T13:42:39;11.50;99.90
13806;DHT22;6974;53.606;9.872;2023-03-21T13:45:10;11.50;99.90
13806;DHT22;6974;53.606;9.872;2023-03-21T13:47:49;11.50;99.90
13806;DHT22;6974;53.606;9.872;2023-03-21T13:50:34;11.60;99.90
13806;DHT22;6974;53.606;9.872;2023-03-21T13:53:17;11.60;99.90
13806;DHT22;6974;53.606;9.872;2023-03-21T13:55:47;11.70;99.90
13806;DHT22;6974;53.606;9.872;2023-03-21T13:58:30;11.60;99.90
13806;DHT22;6974;53.606;9.872;2023-03-21T14:01:21;11.60;99.90
13806;DHT22;6974;53.606;9.872;2023-03-21T14:03:57;11.70;99.90
13806;DHT22;6974;53.606;9.872;2023-03-21T14:06:31;11.60;99.90
13806;DHT22;6974;53.606;9.872;2023-03-21T14:09:00;11.60;99.90
13806;DHT22;6974;53.606;9.872;2023-03-21T14:11:30;11.50;99.90
13806;DHT22;6974;53.606;9.872;2023-03-21T14:13:59;11.60;99.90
13806;DHT22;6974;53.606;9.872;2023-03-21T14:16:27;11.50;99.90
13806;DHT22;6974;53.606;9.872;2023-03-21T14:18:59;11.60;99.90
13806;DHT22;6974;53.606;9.872;2023-03-21T14:21:28;11.60;99.90
13806;DHT22;6974;53.606;9.872;2023-03-21T14:23:58;11.60;99.90
13806;DHT22;6974;53.606;9.872;2023-03-21T14:26:29;11.60;99.90
13806;DHT22;6974;53.606;9.872;2023-03-21T14:28:57;11.60;99.90
13806;DHT22;6974;53.606;9.872;2023-03-21T14:31:25;11.60;99.90
13806;DHT22;6974;53.606;9.872;2023-03-21T14:33:56;11.60;99.90
13806;DHT22;6974;53.606;9.872;2023-03-21T14:36:26;11.50;99.90
13806;DHT22;6974;53.606;9.872;2023-03-21T14:38:57;11.50;99.90
13806;DHT22;6974;53.606;9.872;2023-03-21T14:41:29;11.60;99.90
13806;DHT22;6974;53.606;9.872;2023-03-21T14:46:50;11.60;99.90
13806;DHT22;6974;53.606;9.872;2023-03-21T14:49:23;11.60;99.90
13806;DHT22;6974;53.606;9.872;2023-03-21T14:51:53;11.60;99.90
13806;DHT22;6974;53.606;9.872;2023-03-21T14:54:21;11.60;99.90
13806;DHT22;6974;53.606;9.872;2023-03-21T14:56:55;11.70;99.90
13806;DHT22;6974;53.606;9.872;2023-03-21T14:59:26;11.60;99.90
13806;DHT22;6974;53.606;9.872;2023-03-21T15:01:56;11.60;99.90
13806;DHT22;6974;53.606;9.872;2023-03-21T15:04:26;11.60;99.90
13806;DHT22;6974;53.606;9.872;2023-03-21T15:06:56;11.60;99.90
13806;DHT22;6974;53.606;9.872;2023-03-21T15:09:26;11.60;99.90
13806;DHT22;6974;53.606;9.872;2023-03-21T15:11:55;11.70;99.90
13806;DHT22;6974;53.606;9.872;2023-03-21T15:14:26;11.70;99.90
13806;DHT22;6974;53.606;9.872;2023-03-21T15:16:55;11.60;99.90
13806;DHT22;6974;53.606;9.872;2023-03-21T15:19:29;11.60;99.90
13806;DHT22;6974;53.606;9.872;2023-03-21T15:22:02;11.50;99.90
13806;DHT22;6974;53.606;9.872;2023-03-21T15:24:36;11.60;99.90
13806;DHT22;6974;53.606;9.872;2023-03-21T15:27:07;11.60;99.90
13806;DHT22;6974;53.606;9.872;2023-03-21T15:29:34;11.50;99.90
13806;DHT22;6974;53.606;9.872;2023-03-21T15:32:04;11.50;99.90
13806;DHT22;6974;53.606;9.872;2023-03-21T15:34:35;11.60;99.90
13806;DHT22;6974;53.606;9.872;2023-03-21T15:37:04;11.60;99.90
13806;DHT22;6974;53.606;9.872;2023-03-21T15:39:33;11.60;99.90
13806;DHT22;6974;53.606;9.872;2023-03-21T15:42:21;11.60;99.90
13806;DHT22;6974;53.606;9.872;2023-03-21T15:44:51;11.50;99.90
13806;DHT22;6974;53.606;9.872;2023-03-21T15:47:34;11.50;99.90
13806;DHT22;6974;53.606;9.872;2023-03-21T15:50:06;11.50;99.90
13806;DHT22;6974;53.606;9.872;2023-03-21T15:52:36;11.50;99.90
13806;DHT22;6974;53.606;9.872;2023-03-21T15:55:16;11.50;99.90
13806;DHT22;6974;53.606;9.872;2023-03-21T15:57:52;11.50;99.90
13806;DHT22;6974;53.606;9.872;2023-03-21T16:00:23;11.50;99.90
13806;DHT22;6974;53.606;9.872;2023-03-21T16:02:55;11.40;99.90
13806;DHT22;6974;53.606;9.872;2023-03-21T16:05:30;11.40;99.90
13806;DHT22;6974;53.606;9.872;2023-03-21T16:08:00;11.50;99.90
13806;DHT22;6974;53.606;9.872;2023-03-21T16:10:30;11.50;99.90
13806;DHT22;6974;53.606;9.872;2023-03-21T16:12:58;11.40;99.90
13806;DHT22;6974;53.606;9.872;2023-03-21T16:15:26;11.40;99.90
13806;DHT22;6974;53.606;9.872;2023-03-21T16:17:53;11.40;99.90
13806;DHT22;6974;53.606;9.872;2023-03-21T16:20:24;11.40;99.90
13806;DHT22;6974;53.606;9.872;2023-03-21T16:22:52;11.40;99.90
13806;DHT22;6974;53.606;9.872;2023-03-21T16:25:20;11.40;99.90
13806;DHT22;6974;53.606;9.872;2023-03-21T16:27:47;11.40;99.90
13806;DHT22;6974;53.606;9.872;2023-03-21T16:30:18;11.40;99.90